PMDY METAR and TAF weather

Enter ICAO airport designator
Station Type Date Time Source
PMDY METAR 2021/08/02 01:56 UTC NOAA

PMDY 020156Z AUTO 12007KT 5SM HZ CLR 26/23 A3006 RMK AO2 SLP180 T02610228


Station Type Date Time Source
PMDY Decoded METAR 2021/08/02 01:56 UTC NOAA

Sand Island, Henderson Field Airport, HI, United States (PMDY) 28-13N 177-22W 6M
Aug 01, 2021 - 09:56 PM EDT / 2021.08.02 0156 UTC
Wind: from the ESE (120 degrees) at 8 MPH (7 KT):0
Visibility: 5 mile(s):0
Sky conditions: clear
Weather: haze
Temperature: 79.0 F (26.1 C)
Dew Point: 73.0 F (22.8 C)
Relative Humidity: 82%
Pressure (altimeter): 30.06 in. Hg (1017 hPa)
ob: PMDY 020156Z AUTO 12007KT 5SM HZ CLR 26/23 A3006 RMK AO2 SLP180 T02610228
cycle: 2

Station Type Date Time Source
PMDY TAF 2021/08/01 18:48 UTC NOAA

TAF PMDY 011747Z 0118/0218 15007KT P6SM FEW020 SCT040
TEMPO 0117/0119 18013KT 3SM SHRA BR BKN020 OVC040

Example: see airport list